Time;durP1;ratioP1;P1;durP2;ratioP2;P2;SDS_P1;SDS_P2;PMS_P1;PMS_P2;Temp;Humidity;BMP_temperature;BMP_pressure;BME280_temperature;BME280_humidity;BME280_pressure;Samples;Min_cycle;Max_cycle;Signal;HPM_P1;HPM_P2
2022/05/26 07:09:04;;;;;;;2.53;1.50;;;16.90;75.30;;;;;;4957827;29;20229;-88
2022/05/26 07:12:23;;;;;;;1.80;1.30;;;16.70;76.90;;;;;;4995434;28;20219;-89
2022/05/26 07:15:09;;;;;;;1.23;1.13;;;16.70;78.50;;;;;;4989834;28;20209;-85
2022/05/26 07:18:04;;;;;;;2.47;1.42;;;16.80;78.70;;;;;;4976256;28;20227;-86
2022/05/26 07:20:36;;;;;;;1.83;1.58;;;16.80;77.20;;;;;;4991612;28;20209;-86
2022/05/26 07:23:27;;;;;;;3.13;1.65;;;16.70;74.70;;;;;;4976018;28;20208;-88
2022/05/26 07:26:32;;;;;;;4.10;1.60;;;16.60;73.40;;;;;;4985771;28;20216;-88
2022/05/26 07:29:14;;;;;;;1.77;1.67;;;16.70;78.50;;;;;;4982054;28;20225;-87
2022/05/26 07:32:01;;;;;;;2.60;1.40;;;16.80;75.20;;;;;;4955720;29;20206;-86
2022/05/26 07:34:54;;;;;;;1.42;1.33;;;16.80;75.10;;;;;;4951837;29;20206;-87
2022/05/26 07:46:26;;;;;;;1.25;1.13;;;17.30;55.90;;;;;;4928643;29;20194;-89
2022/05/26 07:49:12;;;;;;;4.40;1.70;;;17.30;53.40;;;;;;4931003;29;20226;-89
2022/05/26 07:55:23;;;;;;;2.38;1.10;;;17.20;45.30;;;;;;4932222;29;20206;-88
2022/05/26 08:01:51;;;;;;;3.08;1.27;;;17.70;49.90;;;;;;4930886;29;20229;-87
2022/05/26 08:04:44;;;;;;;1.17;1.05;;;17.90;50.40;;;;;;4927262;29;20239;-87
2022/05/26 08:07:27;;;;;;;3.47;1.45;;;18.10;47.80;;;;;;4931657;29;20246;-89
2022/05/26 08:10:15;;;;;;;1.30;1.13;;;18.30;49.20;;;;;;4935786;29;20226;-87
2022/05/26 08:12:59;;;;;;;1.38;1.27;;;18.40;50.70;;;;;;4918805;29;20214;-88
2022/05/26 08:15:31;;;;;;;3.60;1.17;;;18.70;45.40;;;;;;4924984;29;20217;-87
2022/05/26 08:18:05;;;;;;;3.95;1.20;;;18.90;45.90;;;;;;4923708;29;20215;-86
2022/05/26 08:21:11;;;;;;;4.57;1.25;;;19.60;39.30;;;;;;4920343;29;20249;-89
2022/05/26 08:23:43;;;;;;;4.78;1.30;;;19.80;31.90;;;;;;4914239;29;20227;-87
2022/05/26 08:26:30;;;;;;;2.53;1.40;;;21.30;31.60;;;;;;4921342;29;20290;-87
2022/05/26 08:28:58;;;;;;;1.77;1.23;;;22.90;25.70;;;;;;4909241;29;20199;-90
2022/05/26 08:31:29;;;;;;;4.38;1.80;;;23.20;24.30;;;;;;4915620;29;20579;-89
2022/05/26 08:33:56;;;;;;;3.10;1.58;;;23.20;24.60;;;;;;4904329;29;20222;-83
2022/05/26 08:36:29;;;;;;;1.80;1.30;;;23.10;22.90;;;;;;4915403;29;20207;-87
2022/05/26 08:39:14;;;;;;;3.22;1.52;;;23.50;22.90;;;;;;4910896;29;20214;-82
2022/05/26 08:41:51;;;;;;;1.83;1.20;;;24.00;21.90;;;;;;4906826;29;20729;-82
2022/05/26 08:44:32;;;;;;;1.80;1.30;;;24.40;21.20;;;;;;4903621;29;20206;-83
2022/05/26 08:47:03;;;;;;;3.35;1.70;;;26.10;19.80;;;;;;4909278;29;20209;-81
2022/05/26 08:49:39;;;;;;;2.80;1.40;;;27.00;17.80;;;;;;4914387;29;20214;-81
2022/05/26 08:52:16;;;;;;;1.70;1.55;;;27.20;16.90;;;;;;4907025;29;20206;-81
2022/05/26 08:55:05;;;;;;;2.45;1.80;;;27.90;15.60;;;;;;4912457;29;20206;-81
2022/05/26 08:57:41;;;;;;;1.98;1.77;;;28.90;16.10;;;;;;4906685;29;20213;-81
2022/05/26 09:00:13;;;;;;;3.95;1.70;;;29.00;13.80;;;;;;4909638;29;20213;-82
2022/05/26 09:02:41;;;;;;;2.38;1.65;;;28.20;14.40;;;;;;4907172;29;20270;-82
2022/05/26 09:05:19;;;;;;;4.07;1.63;;;27.00;15.10;;;;;;4909897;29;20210;-82
2022/05/26 09:13:35;;;;;;;4.57;1.50;;;22.60;23.50;;;;;;4908211;29;20201;-86
2022/05/26 09:16:06;;;;;;;1.77;1.65;;;22.20;25.30;;;;;;4915672;29;20199;-83
2022/05/26 09:18:36;;;;;;;4.95;1.40;;;22.80;25.80;;;;;;4921880;29;20206;-83
2022/05/26 09:21:22;;;;;;;2.28;1.50;;;22.70;22.50;;;;;;4921602;29;20301;-82
2022/05/26 09:23:54;;;;;;;1.95;1.15;;;22.50;24.10;;;;;;4922831;29;20209;-85
2022/05/26 09:26:57;;;;;;;3.03;1.30;;;22.10;24.80;;;;;;4932512;29;20574;-84
2022/05/26 09:29:27;;;;;;;2.47;1.27;;;21.50;27.20;;;;;;4932332;29;20206;-86
2022/05/26 09:32:01;;;;;;;1.98;1.17;;;21.20;29.00;;;;;;4931239;29;20210;-87
2022/05/26 09:35:03;;;;;;;2.00;1.30;;;21.80;26.70;;;;;;4931922;29;20217;-88
2022/05/26 09:38:01;;;;;;;6.60;1.38;;;21.90;27.00;;;;;;4927768;29;20226;-87
2022/05/26 09:44:01;;;;;;;4.30;1.20;;;21.20;26.40;;;;;;4919592;29;20634;-87
2022/05/26 09:46:35;;;;;;;3.00;1.40;;;21.70;27.60;;;;;;4914063;29;20230;-86
2022/05/26 09:49:25;;;;;;;2.38;1.40;;;23.40;24.00;;;;;;4907698;29;20562;-84
2022/05/26 09:52:07;;;;;;;1.60;1.35;;;24.60;22.00;;;;;;4907901;29;20258;-85
2022/05/26 09:54:36;;;;;;;1.85;1.38;;;24.20;20.00;;;;;;4912827;29;20202;-85
2022/05/26 09:57:14;;;;;;;5.10;1.60;;;23.20;21.20;;;;;;4912664;29;20203;-83
2022/05/26 09:59:55;;;;;;;1.40;1.30;;;25.00;20.00;;;;;;4908254;29;20563;-81
2022/05/26 10:02:29;;;;;;;1.90;1.48;;;26.80;17.10;;;;;;4909807;29;20243;-82
2022/05/26 10:05:05;;;;;;;4.28;1.50;;;27.10;15.20;;;;;;4915949;29;20281;-82
2022/05/26 10:07:46;;;;;;;1.60;1.48;;;26.30;14.80;;;;;;4917985;29;20210;-81
2022/05/26 10:10:22;;;;;;;2.80;1.65;;;25.40;16.40;;;;;;4902540;29;20221;-87
2022/05/26 10:13:09;;;;;;;3.65;1.30;;;24.90;17.20;;;;;;4906700;29;20658;-81
2022/05/26 10:16:05;;;;;;;2.30;1.10;;;24.80;17.10;;;;;;4909882;29;20741;-80
2022/05/26 10:18:58;;;;;;;3.33;1.52;;;26.30;16.30;;;;;;4916376;29;20206;-83
2022/05/26 10:21:41;;;;;;;2.10;1.70;;;26.60;14.90;;;;;;4908657;29;20652;-84
2022/05/26 10:24:40;;;;;;;5.15;1.52;;;26.50;14.90;;;;;;4911871;29;20211;-79
2022/05/26 10:27:36;;;;;;;3.38;1.40;;;26.80;15.00;;;;;;4902617;29;20215;-77
2022/05/26 10:30:16;;;;;;;1.58;1.30;;;26.90;15.10;;;;;;4917949;29;20209;-80
2022/05/26 10:33:20;;;;;;;1.98;1.38;;;26.60;15.00;;;;;;4919021;29;20233;-80
2022/05/26 10:36:00;;;;;;;2.38;1.50;;;26.60;16.50;;;;;;4912930;29;20240;-80
2022/05/26 10:38:55;;;;;;;1.77;1.38;;;26.30;14.80;;;;;;4918245;29;20206;-79
2022/05/26 10:41:40;;;;;;;2.60;1.42;;;27.00;15.20;;;;;;4917663;29;20230;-80
2022/05/26 10:44:21;;;;;;;2.45;1.38;;;27.30;15.30;;;;;;4912438;29;20206;-81
2022/05/26 10:47:02;;;;;;;2.95;1.20;;;26.20;14.70;;;;;;4915175;29;20213;-81
2022/05/26 10:49:38;;;;;;;3.03;1.17;;;25.00;17.80;;;;;;4918953;29;20297;-78
2022/05/26 10:52:12;;;;;;;1.30;1.10;;;24.60;17.60;;;;;;4918901;29;20209;-81
2022/05/26 10:54:49;;;;;;;1.85;1.30;;;24.00;19.40;;;;;;4912947;29;20209;-79
2022/05/26 10:57:31;;;;;;;2.38;1.40;;;24.40;21.10;;;;;;4913585;29;20281;-79
2022/05/26 11:00:04;;;;;;;1.38;1.13;;;24.70;18.90;;;;;;4912063;29;20207;-81
2022/05/26 11:02:39;;;;;;;1.63;1.10;;;25.10;19.90;;;;;;4918608;29;20238;-79
2022/05/26 11:05:28;;;;;;;2.08;1.40;;;25.50;19.00;;;;;;4909360;29;20646;-81
2022/05/26 11:07:59;;;;;;;1.77;1.30;;;25.30;17.70;;;;;;4908444;29;20219;-80
2022/05/26 11:10:32;;;;;;;2.35;1.17;;;24.40;17.80;;;;;;4922383;29;20226;-84
2022/05/26 11:13:12;;;;;;;4.55;1.42;;;24.00;18.90;;;;;;4919580;29;20207;-83
2022/05/26 11:19:26;;;;;;;1.67;1.10;;;23.50;20.00;;;;;;4916664;29;20201;-84
2022/05/26 11:22:45;;;;;;;;;;;;;;;;;;;;;
2022/05/26 11:25:17;;;;;;;2.50;1.20;;;22.90;21.30;;;;;;4922378;29;20266;-88
2022/05/26 11:27:54;;;;;;;1.40;1.10;;;22.70;23.60;;;;;;4923351;29;20219;-87
2022/05/26 11:36:32;;;;;;;2.78;1.30;;;22.20;24.10;;;;;;4924258;29;20213;-87
2022/05/26 11:39:01;;;;;;;1.90;1.27;;;22.20;25.30;;;;;;4922794;29;20195;-89
2022/05/26 11:41:35;;;;;;;4.65;1.30;;;22.60;25.10;;;;;;4921809;29;20312;-86
2022/05/26 11:44:07;;;;;;;1.13;1.08;;;22.60;22.50;;;;;;4922679;29;20283;-87
2022/05/26 11:47:24;;;;;;;2.30;0.95;;;22.50;23.80;;;;;;4924983;29;20251;-88
2022/05/26 11:50:50;;;;;;;1.40;1.08;;;22.80;20.80;;;;;;4929160;29;20218;-86
2022/05/26 11:53:53;;;;;;;2.38;1.20;;;23.50;23.10;;;;;;4922216;29;20217;-83
2022/05/26 11:56:50;;;;;;;3.25;1.40;;;24.00;20.70;;;;;;4919568;29;20246;-87
2022/05/26 11:59:44;;;;;;;3.80;1.17;;;24.10;19.70;;;;;;4919615;29;20213;-87
2022/05/26 12:02:29;;;;;;;1.50;1.10;;;23.90;20.40;;;;;;4914787;29;20721;-87
2022/05/26 12:05:46;;;;;;;3.58;1.30;;;23.80;21.30;;;;;;4929939;29;20215;-87
2022/05/26 12:08:31;;;;;;;2.03;1.10;;;23.60;22.80;;;;;;4848584;29;20666;-91
2022/05/26 12:11:13;;;;;;;1.60;1.17;;;23.40;19.60;;;;;;4842759;29;20745;-89
2022/05/26 12:14:16;;;;;;;5.28;1.20;;;23.40;22.20;;;;;;4828943;29;20264;-90
2022/05/26 12:16:49;;;;;;;2.00;1.00;;;23.50;20.10;;;;;;4845653;29;20219;-90
2022/05/26 12:19:40;;;;;;;2.38;1.23;;;23.10;22.90;;;;;;4845627;29;20206;-89
2022/05/26 12:22:24;;;;;;;1.27;1.17;;;23.20;22.60;;;;;;4836531;29;20249;-90
2022/05/26 12:25:02;;;;;;;1.90;1.10;;;23.20;20.90;;;;;;4836785;29;20216;-90
2022/05/26 12:27:54;;;;;;;27.15;17.33;;;23.20;21.20;;;;;;4840414;29;20217;-89
2022/05/26 12:30:34;;;;;;;8.32;4.18;;;23.20;22.00;;;;;;4843734;29;20577;-89
2022/05/26 12:33:27;;;;;;;23.38;11.05;;;23.10;20.60;;;;;;4823433;29;20587;-89
2022/05/26 12:36:21;;;;;;;4.35;1.70;;;23.20;22.30;;;;;;4842124;29;20600;-89
2022/05/26 12:39:02;;;;;;;3.38;1.30;;;22.90;20.70;;;;;;4842854;29;20238;-90
2022/05/26 12:41:43;;;;;;;6.32;4.28;;;22.90;21.20;;;;;;4845090;29;20233;-89
2022/05/26 12:44:43;;;;;;;7.47;5.28;;;23.40;21.60;;;;;;4899948;29;20226;-89
2022/05/26 12:54:01;;;;;;;3.00;1.20;;;23.10;22.20;;;;;;4937884;29;20242;-89
2022/05/26 12:56:50;;;;;;;12.70;7.68;;;22.80;19.90;;;;;;4927878;29;20301;-89
2022/05/26 12:59:23;;;;;;;4.65;2.28;;;22.90;22.00;;;;;;4927310;29;20217;-89
2022/05/26 13:01:50;;;;;;;1.13;1.02;;;23.00;21.90;;;;;;4925861;29;20199;-90
2022/05/26 13:04:32;;;;;;;3.38;2.00;;;22.90;22.60;;;;;;4924505;29;20226;-87
2022/05/26 13:10:57;;;;;;;2.53;1.70;;;23.10;22.80;;;;;;4938018;29;20201;-87
2022/05/26 13:14:08;;;;;;;1.55;1.30;;;23.10;20.80;;;;;;4937236;29;20254;-86
2022/05/26 13:17:32;;;;;;;3.33;1.83;;;23.40;21.60;;;;;;4930198;29;20202;-86
2022/05/26 13:26:19;;;;;;;2.60;1.60;;;22.90;21.10;;;;;;4924786;29;20210;-89
2022/05/26 13:28:49;;;;;;;2.83;1.15;;;22.90;22.50;;;;;;4918335;29;20217;-89
2022/05/26 13:34:21;;;;;;;1.88;1.10;;;23.30;20.30;;;;;;4916735;29;20217;-89
2022/05/26 13:36:50;;;;;;;2.55;1.40;;;23.10;21.10;;;;;;4923631;29;20210;-91
2022/05/26 13:39:20;;;;;;;1.58;1.20;;;23.20;20.80;;;;;;4923918;29;20233;-91
2022/05/26 13:41:50;;;;;;;2.00;1.20;;;23.10;21.70;;;;;;4918298;29;20291;-90
2022/05/26 13:44:21;;;;;;;1.65;1.27;;;22.90;20.60;;;;;;4917095;29;20324;-89
2022/05/26 13:46:50;;;;;;;1.85;1.13;;;22.80;22.20;;;;;;4923752;29;20238;-90
2022/05/26 13:49:36;;;;;;;1.88;1.08;;;22.70;22.00;;;;;;4924166;29;20206;-89
2022/05/26 13:52:10;;;;;;;3.38;1.20;;;22.50;22.60;;;;;;4921733;29;20239;-89
2022/05/26 13:54:56;;;;;;;1.95;1.20;;;22.50;22.40;;;;;;4918445;29;20223;-89
2022/05/26 13:57:28;;;;;;;3.22;1.40;;;22.60;21.70;;;;;;4924476;29;20220;-90
2022/05/26 14:00:20;;;;;;;1.65;1.33;;;22.60;22.80;;;;;;4918067;29;20210;-90
2022/05/26 14:02:56;;;;;;;2.25;1.20;;;22.50;23.70;;;;;;4916547;29;20246;-90
2022/05/26 14:05:25;;;;;;;1.67;1.00;;;22.50;22.80;;;;;;4925084;29;20202;-90
2022/05/26 14:08:10;;;;;;;4.88;1.30;;;22.50;22.40;;;;;;4924239;29;20211;-90
2022/05/26 14:10:46;;;;;;;1.73;1.08;;;22.70;23.70;;;;;;4919329;29;20205;-90
2022/05/26 14:13:26;;;;;;;2.85;1.23;;;22.80;22.60;;;;;;4918303;29;20650;-89
2022/05/26 14:15:55;;;;;;;1.45;1.10;;;22.90;22.70;;;;;;4923864;29;20210;-89
2022/05/26 14:18:27;;;;;;;3.00;1.00;;;22.90;24.20;;;;;;4927432;29;20221;-89
2022/05/26 14:21:00;;;;;;;1.40;1.15;;;23.00;21.40;;;;;;4924613;29;20203;-89
2022/05/26 14:23:33;;;;;;;1.33;1.08;;;22.80;22.90;;;;;;4919744;29;20548;-89
2022/05/26 14:26:04;;;;;;;2.15;1.30;;;22.50;22.40;;;;;;4924538;29;20205;-89
2022/05/26 14:28:41;;;;;;;1.98;1.30;;;22.30;24.20;;;;;;4924933;29;20214;-89
2022/05/26 14:31:28;;;;;;;2.40;2.17;;;21.90;24.50;;;;;;4924349;29;20206;-89
2022/05/26 14:34:02;;;;;;;3.45;1.58;;;21.70;24.60;;;;;;4921826;29;20205;-89
2022/05/26 14:36:35;;;;;;;1.52;1.13;;;21.90;25.20;;;;;;4917354;29;20222;-91
2022/05/26 14:39:07;;;;;;;3.15;1.20;;;22.30;25.60;;;;;;4922827;29;20246;-90
2022/05/26 14:42:06;;;;;;;2.83;1.17;;;22.40;23.70;;;;;;4920139;29;20595;-89
2022/05/26 14:44:35;;;;;;;4.15;1.40;;;22.50;24.10;;;;;;4914859;29;20223;-89
2022/05/26 14:47:12;;;;;;;3.25;1.20;;;22.40;24.20;;;;;;4925322;29;20203;-89
2022/05/26 14:49:42;;;;;;;3.25;1.50;;;22.20;25.00;;;;;;4916845;29;20558;-89
2022/05/26 14:52:14;;;;;;;3.00;1.10;;;21.90;27.00;;;;;;4924340;29;20613;-89
2022/05/26 14:57:31;;;;;;;3.45;1.40;;;22.30;26.00;;;;;;4923021;29;20231;-89
2022/05/26 15:00:00;;;;;;;3.20;1.40;;;22.00;25.40;;;;;;4923480;29;20215;-89
2022/05/26 15:02:29;;;;;;;1.98;1.13;;;21.70;26.10;;;;;;4926823;29;20306;-89
2022/05/26 15:04:56;;;;;;;1.73;1.10;;;21.70;26.40;;;;;;4925615;29;20234;-89
2022/05/26 15:07:25;;;;;;;2.22;1.23;;;21.60;24.90;;;;;;4916657;29;20292;-90
2022/05/26 15:09:54;;;;;;;4.25;1.30;;;21.50;26.70;;;;;;4923702;29;20222;-89
2022/05/26 15:12:34;;;;;;;2.55;1.15;;;21.20;27.10;;;;;;4926879;29;20218;-89
2022/05/26 15:18:28;;;;;;;1.20;1.00;;;21.00;27.00;;;;;;4928320;29;20211;-88
2022/05/26 15:21:04;;;;;;;3.22;1.20;;;21.20;27.70;;;;;;4925360;29;20287;-89
2022/05/26 15:24:01;;;;;;;3.72;1.25;;;21.20;26.40;;;;;;4930828;29;20290;-88
2022/05/26 15:26:35;;;;;;;2.80;1.00;;;21.30;28.20;;;;;;4931705;29;20210;-88
2022/05/26 15:29:38;;;;;;;2.17;1.10;;;21.20;28.70;;;;;;4932459;29;20207;-88
2022/05/26 15:32:07;;;;;;;2.30;1.30;;;21.20;25.80;;;;;;4927755;29;20207;-88
2022/05/26 15:34:39;;;;;;;2.08;1.30;;;21.20;27.50;;;;;;4918907;29;20225;-88
2022/05/26 15:37:35;;;;;;;3.90;1.30;;;21.20;27.90;;;;;;4934237;29;20699;-88
2022/05/26 15:40:17;;;;;;;1.45;1.17;;;21.20;27.10;;;;;;4934276;29;20206;-88
2022/05/26 15:42:58;;;;;;;1.98;1.40;;;21.20;27.80;;;;;;4935333;29;20254;-88
2022/05/26 15:45:53;;;;;;;2.53;1.30;;;21.20;28.30;;;;;;4933374;29;20213;-88
2022/05/26 15:51:59;;;;;;;3.25;1.30;;;21.20;29.00;;;;;;4923001;29;20214;-90
2022/05/26 15:54:30;;;;;;;2.80;1.48;;;21.30;27.30;;;;;;4917739;29;20218;-91
2022/05/26 15:57:20;;;;;;;2.70;1.17;;;21.30;27.10;;;;;;4930297;29;20199;-89
2022/05/26 16:10:36;;;;;;;2.15;1.45;;;21.00;26.60;;;;;;4930366;29;20225;-90
2022/05/26 16:15:46;;;;;;;5.38;1.88;;;20.80;29.20;;;;;;4929982;29;20270;-90
2022/05/26 16:27:48;;;;;;;;;;;;;;;;;;;;;
2022/05/26 16:30:55;;;;;;;1.92;1.20;;;20.70;29.30;;;;;;4906862;29;20206;-88
2022/05/26 16:33:47;;;;;;;2.00;1.13;;;20.60;28.80;;;;;;4906969;29;20207;-88
2022/05/26 16:40:23;;;;;;;10.07;9.02;;;20.70;27.90;;;;;;4906483;29;20266;-86
2022/05/26 16:43:35;;;;;;;2.08;1.40;;;20.70;29.00;;;;;;4919630;29;20230;-87
2022/05/26 16:50:26;;;;;;;4.35;2.33;;;20.60;29.60;;;;;;4918108;29;20193;-87
2022/05/26 16:53:25;;;;;;;1.40;1.30;;;20.60;29.20;;;;;;4899980;29;20279;-88
2022/05/26 17:02:16;;;;;;;3.13;1.70;;;20.50;29.40;;;;;;4915057;29;20282;-88
2022/05/26 17:05:03;;;;;;;2.47;1.60;;;20.30;31.50;;;;;;4923175;29;20242;-88
2022/05/26 17:07:44;;;;;;;1.92;1.50;;;20.30;30.10;;;;;;4917678;29;20250;-88
2022/05/26 17:10:16;;;;;;;2.60;1.50;;;20.20;31.00;;;;;;4921267;29;20226;-88
2022/05/26 18:48:49;;;;;;;3.35;2.00;;;18.50;43.00;;;;;;4893758;29;20220;-90
2022/05/26 18:58:29;;;;;;;2.20;1.38;;;18.20;45.40;;;;;;4829457;29;20210;-90
2022/05/26 19:08:04;;;;;;;2.85;1.60;;;17.80;51.30;;;;;;4743004;30;20297;-89
2022/05/26 19:10:50;;;;;;;1.50;1.35;;;17.60;53.70;;;;;;4703413;30;20314;-88
2022/05/26 19:13:21;;;;;;;1.40;1.30;;;17.50;53.60;;;;;;4775467;30;20239;-89
2022/05/26 19:15:55;;;;;;;1.65;1.55;;;17.50;53.70;;;;;;4768582;30;20212;-88
2022/05/26 19:19:10;;;;;;;2.13;1.50;;;17.40;55.30;;;;;;4789728;29;20319;-88
2022/05/26 19:59:24;;;;;;;8.73;4.78;;;16.30;73.60;;;;;;4873653;29;20215;-87
2022/05/26 21:47:08;;;;;;;;;;;;;;;;;;;;;
2022/05/26 22:10:57;;;;;;;3.25;2.53;;;15.20;82.20;;;;;;4832414;29;20189;-88
2022/05/26 22:17:44;;;;;;;3.10;2.20;;;15.00;83.60;;;;;;4757557;30;20219;-88
2022/05/26 22:24:36;;;;;;;2.92;2.10;;;15.00;82.90;;;;;;4732856;30;20241;-88
2022/05/26 23:27:47;;;;;;;4.82;3.38;;;13.90;94.60;;;;;;4779780;30;20199;-87
